Kezdőlap
METAR-TAF:

METAR-TAF

Repülőterek :

Pruniers

Romorantin-Lanthenay, Franciaország

földrajzi szélesség: 47-19N, földrajzi hosszúság: 001-41E, magasság: 85 m

Jelenlegi meteorológiai megfigyelések

A jelentés 16 perccel ezelõtt készült, 14:00 UTC
Délkeleti szél 10 kt, kelet-délkeleti és déli között változik
Hőmérséklet 24°C
Páratartalom 34%
Légköri nyomás 1016 hPa
Látótávolság 10 km, vagy több
felhőtlen 1500 m magasságban, és nincs gomolyfelhõ

METAR: LFYR 181400Z AUTO 14010KT 110V170 CAVOK 24/07 Q1016 NOSIG

Idő: 16:16 (14:16 UTC)


TAF: hiányzik

Meteorológiai megfigyelések és előrejelzések több, mint 4000 repülőtéren (METAR és TAF jelentéseket).

A térképen piros és sárga pontok jelzik az elérhető meteorológiai állomásokat.

Mozgassa az egeret a pont fölött, hogy megjelenjen az állomás neve.

Azután kattintson az időjárási megfigyelések és előrejelzések megtekintéséhez.

A térkép megváltoztatása: kattintson a fekete keresztel jelölt zöld gombra ráközelítéshez, a vonallal jelölt zöld gombra távolításhoz, vagy a zöld nyilakra a szomszédos térképek eléréséhez.


METAR-TAF: